HAZ814 ZGGG-NZAA
Flight info
| Callsign | HAZ814 |
|---|---|
| Flight time | N/A |
| Altitude | 35000 |
| Route | VIBOS9 VIBOS R473 SIERA DCT MULET DCT NOMAN A461 AVMUP W16 MIA B462 POXEL/N0479F370 B462 BIK G459 WP/N0469F390 B473 CS Y177 AKROM Z25 ALBUX W112 OVRON A346 SALAG |
| Aircraft | A343/H-SDE2E3FGHIJ4J5M1RWXY/LB1D1 |
Departure
| Time | 2026-05-01 15:19 |
|---|---|
| Airport | Guangzhou Baiyun International Airport (ZGGG) |
Arrival
| Time | N/A |
|---|---|
| Airport | Auckland International Airport (NZAA) |
| Time | Latitude | Longitude | Altitude | Speed | Heading |
|---|---|---|---|---|---|
| 2026-05-01 14:40 | 23.39897 | 113.30424 | 58 ft | 0 kts | 282° |
| 2026-05-01 15:09 | 23.39892 | 113.30448 | 54 ft | 4 kts | 282° |
| 2026-05-01 15:09 | 23.39887 | 113.30476 | 51 ft | 4 kts | 276° |
| 2026-05-01 15:10 | 23.39888 | 113.30504 | 51 ft | 4 kts | 249° |
| 2026-05-01 15:10 | 23.39925 | 113.30542 | 51 ft | 4 kts | 203° |
| 2026-05-01 15:10 | 23.39947 | 113.30553 | 50 ft | 4 kts | 209° |
| 2026-05-01 15:11 | 23.39966 | 113.30565 | 50 ft | 0 kts | 209° |
| 2026-05-01 15:14 | 23.39961 | 113.30562 | 50 ft | 2 kts | 207° |
| 2026-05-01 15:14 | 23.39930 | 113.30551 | 50 ft | 7 kts | 189° |
| 2026-05-01 15:14 | 23.39868 | 113.30677 | 51 ft | 13 kts | 101° |
| 2026-05-01 15:15 | 23.39975 | 113.30786 | 51 ft | 12 kts | 12° |
| 2026-05-01 15:15 | 23.39994 | 113.30936 | 54 ft | 14 kts | 103° |
| 2026-05-01 15:16 | 23.40178 | 113.31038 | 51 ft | 20 kts | 14° |
| 2026-05-01 15:16 | 23.40487 | 113.31121 | 53 ft | 25 kts | 14° |
| 2026-05-01 15:17 | 23.40809 | 113.31210 | 54 ft | 23 kts | 14° |
| 2026-05-01 15:18 | 23.40886 | 113.31404 | 52 ft | 12 kts | 123° |
| 2026-05-01 15:18 | 23.40808 | 113.31414 | 52 ft | 12 kts | 192° |
| 2026-05-01 15:19 | 23.39742 | 113.31127 | 54 ft | 115 kts | 194° |
| 2026-05-01 15:19 | 23.37744 | 113.30615 | 246 ft | 164 kts | 191° |
| 2026-05-01 15:19 | 23.36636 | 113.30334 | 664 ft | 165 kts | 193° |
| 2026-05-01 15:20 | 23.34407 | 113.29713 | 1583 ft | 162 kts | 191° |
| 2026-05-01 15:20 | 23.33326 | 113.29430 | 2082 ft | 159 kts | 191° |
| 2026-05-01 15:20 | 23.32252 | 113.29137 | 2536 ft | 161 kts | 193° |
| 2026-05-01 15:21 | 23.31159 | 113.28833 | 2957 ft | 164 kts | 193° |
| 2026-05-01 15:21 | 23.30041 | 113.28539 | 3374 ft | 166 kts | 191° |
| 2026-05-01 15:21 | 23.28840 | 113.28447 | 3609 ft | 182 kts | 180° |
| 2026-05-01 15:21 | 23.27498 | 113.28455 | 3757 ft | 205 kts | 180° |
| 2026-05-01 15:22 | 23.24394 | 113.28424 | 4343 ft | 241 kts | 181° |
| 2026-05-01 15:22 | 23.22670 | 113.28404 | 4828 ft | 252 kts | 181° |
| 2026-05-01 15:22 | 23.20896 | 113.28386 | 5391 ft | 258 kts | 182° |
| 2026-05-01 15:23 | 23.19076 | 113.28327 | 5933 ft | 265 kts | 188° |
| 2026-05-01 15:23 | 23.17249 | 113.27992 | 6522 ft | 268 kts | 194° |
| 2026-05-01 15:23 | 23.15418 | 113.27549 | 7130 ft | 270 kts | 196° |
| 2026-05-01 15:23 | 23.13576 | 113.27092 | 7747 ft | 273 kts | 196° |
| 2026-05-01 15:24 | 23.11716 | 113.26633 | 8330 ft | 276 kts | 196° |
| 2026-05-01 15:24 | 23.09831 | 113.26173 | 8926 ft | 279 kts | 196° |
| 2026-05-01 15:24 | 23.07930 | 113.25711 | 9539 ft | 281 kts | 196° |
| 2026-05-01 15:24 | 23.06012 | 113.25243 | 10094 ft | 284 kts | 197° |
| 2026-05-01 15:25 | 23.04041 | 113.24760 | 10386 ft | 297 kts | 196° |
| 2026-05-01 15:25 | 23.01972 | 113.24255 | 10617 ft | 312 kts | 196° |
| 2026-05-01 15:25 | 22.99768 | 113.23949 | 10823 ft | 330 kts | 183° |
| 2026-05-01 15:25 | 22.97429 | 113.24274 | 11053 ft | 347 kts | 172° |
| 2026-05-01 15:26 | 22.95023 | 113.24851 | 11267 ft | 361 kts | 171° |
| 2026-05-01 15:26 | 22.92539 | 113.25473 | 11484 ft | 372 kts | 171° |
| 2026-05-01 15:26 | 22.89990 | 113.26105 | 11769 ft | 380 kts | 171° |
| 2026-05-01 15:26 | 22.87392 | 113.26744 | 12160 ft | 384 kts | 171° |
| 2026-05-01 15:27 | 22.84774 | 113.27383 | 12577 ft | 388 kts | 171° |
| 2026-05-01 15:27 | 22.82129 | 113.28025 | 13001 ft | 391 kts | 171° |
| 2026-05-01 15:27 | 22.79465 | 113.28670 | 13451 ft | 394 kts | 171° |